sensor_id;sensor_type;location;lat;lon;timestamp;P1;durP1;ratioP1;P2;durP2;ratioP2
71038;SDS011;58692;43.212;27.908;2023-03-31T00:02:19;29.63;;;14.63;;
71038;SDS011;58692;43.212;27.908;2023-03-31T00:04:46;30.60;;;15.00;;
71038;SDS011;58692;43.212;27.908;2023-03-31T00:07:17;32.63;;;14.73;;
71038;SDS011;58692;43.212;27.908;2023-03-31T00:09:46;32.28;;;15.98;;
71038;SDS011;58692;43.212;27.908;2023-03-31T00:12:13;30.60;;;15.70;;
71038;SDS011;58692;43.212;27.908;2023-03-31T00:14:40;32.25;;;16.00;;
71038;SDS011;58692;43.212;27.908;2023-03-31T00:17:07;27.48;;;15.07;;
71038;SDS011;58692;43.212;27.908;2023-03-31T00:19:33;30.67;;;15.48;;
71038;SDS011;58692;43.212;27.908;2023-03-31T00:21:58;29.00;;;15.50;;
71038;SDS011;58692;43.212;27.908;2023-03-31T00:24:29;28.63;;;14.63;;
71038;SDS011;58692;43.212;27.908;2023-03-31T00:26:58;29.98;;;15.07;;
71038;SDS011;58692;43.212;27.908;2023-03-31T00:29:24;30.23;;;14.68;;
71038;SDS011;58692;43.212;27.908;2023-03-31T00:31:50;30.07;;;13.97;;
71038;SDS011;58692;43.212;27.908;2023-03-31T00:34:16;29.65;;;13.27;;
71038;SDS011;58692;43.212;27.908;2023-03-31T00:36:42;29.50;;;14.43;;
71038;SDS011;58692;43.212;27.908;2023-03-31T00:39:16;27.40;;;14.70;;
71038;SDS011;58692;43.212;27.908;2023-03-31T00:41:43;26.98;;;14.10;;
71038;SDS011;58692;43.212;27.908;2023-03-31T00:46:53;27.50;;;14.00;;
71038;SDS011;58692;43.212;27.908;2023-03-31T00:49:36;28.25;;;13.30;;
71038;SDS011;58692;43.212;27.908;2023-03-31T00:52:11;29.77;;;14.40;;
71038;SDS011;58692;43.212;27.908;2023-03-31T00:54:43;25.83;;;14.23;;
71038;SDS011;58692;43.212;27.908;2023-03-31T00:57:11;26.85;;;14.27;;
71038;SDS011;58692;43.212;27.908;2023-03-31T00:59:42;29.60;;;14.27;;
71038;SDS011;58692;43.212;27.908;2023-03-31T01:02:12;27.92;;;14.05;;
71038;SDS011;58692;43.212;27.908;2023-03-31T01:04:40;26.13;;;12.43;;
71038;SDS011;58692;43.212;27.908;2023-03-31T01:07:13;23.23;;;11.73;;
71038;SDS011;58692;43.212;27.908;2023-03-31T01:09:58;28.23;;;12.82;;
71038;SDS011;58692;43.212;27.908;2023-03-31T01:12:26;27.33;;;12.93;;
71038;SDS011;58692;43.212;27.908;2023-03-31T01:14:52;25.40;;;11.95;;
71038;SDS011;58692;43.212;27.908;2023-03-31T01:17:18;27.02;;;12.55;;
71038;SDS011;58692;43.212;27.908;2023-03-31T01:19:51;26.70;;;12.32;;
71038;SDS011;58692;43.212;27.908;2023-03-31T01:33:02;30.40;;;12.13;;
71038;SDS011;58692;43.212;27.908;2023-03-31T01:41:29;27.58;;;11.55;;
71038;SDS011;58692;43.212;27.908;2023-03-31T01:46:56;28.00;;;12.30;;
71038;SDS011;58692;43.212;27.908;2023-03-31T01:52:15;28.23;;;10.77;;
71038;SDS011;58692;43.212;27.908;2023-03-31T01:54:52;28.92;;;12.35;;
71038;SDS011;58692;43.212;27.908;2023-03-31T02:00:13;28.77;;;12.65;;
71038;SDS011;58692;43.212;27.908;2023-03-31T02:02:44;25.87;;;11.60;;
71038;SDS011;58692;43.212;27.908;2023-03-31T02:05:29;27.05;;;12.00;;
71038;SDS011;58692;43.212;27.908;2023-03-31T02:08:03;24.85;;;12.00;;
71038;SDS011;58692;43.212;27.908;2023-03-31T02:10:40;26.15;;;11.73;;
71038;SDS011;58692;43.212;27.908;2023-03-31T02:13:07;23.92;;;12.45;;
71038;SDS011;58692;43.212;27.908;2023-03-31T02:15:36;27.80;;;13.57;;
71038;SDS011;58692;43.212;27.908;2023-03-31T02:18:05;26.67;;;12.40;;
71038;SDS011;58692;43.212;27.908;2023-03-31T02:20:37;22.63;;;11.30;;
71038;SDS011;58692;43.212;27.908;2023-03-31T02:23:06;21.02;;;9.68;;
71038;SDS011;58692;43.212;27.908;2023-03-31T02:25:40;19.70;;;8.07;;
71038;SDS011;58692;43.212;27.908;2023-03-31T02:28:11;24.57;;;10.83;;
71038;SDS011;58692;43.212;27.908;2023-03-31T02:33:38;21.83;;;11.25;;
71038;SDS011;58692;43.212;27.908;2023-03-31T02:36:03;23.90;;;10.23;;
71038;SDS011;58692;43.212;27.908;2023-03-31T02:38:31;22.35;;;10.05;;
71038;SDS011;58692;43.212;27.908;2023-03-31T02:41:03;20.83;;;10.48;;
71038;SDS011;58692;43.212;27.908;2023-03-31T02:43:29;19.13;;;9.23;;
71038;SDS011;58692;43.212;27.908;2023-03-31T02:45:54;23.97;;;7.97;;
71038;SDS011;58692;43.212;27.908;2023-03-31T02:48:24;18.85;;;7.80;;
71038;SDS011;58692;43.212;27.908;2023-03-31T02:50:58;17.37;;;7.87;;
71038;SDS011;58692;43.212;27.908;2023-03-31T03:07:07;19.58;;;6.30;;
71038;SDS011;58692;43.212;27.908;2023-03-31T03:09:51;17.20;;;7.22;;
71038;SDS011;58692;43.212;27.908;2023-03-31T03:15:10;24.17;;;7.30;;
71038;SDS011;58692;43.212;27.908;2023-03-31T03:17:50;30.73;;;7.63;;
71038;SDS011;58692;43.212;27.908;2023-03-31T03:20:18;21.83;;;9.07;;
71038;SDS011;58692;43.212;27.908;2023-03-31T03:22:44;33.65;;;14.07;;
71038;SDS011;58692;43.212;27.908;2023-03-31T03:25:11;36.55;;;16.23;;
71038;SDS011;58692;43.212;27.908;2023-03-31T03:27:38;39.13;;;17.27;;
71038;SDS011;58692;43.212;27.908;2023-03-31T03:30:05;38.88;;;17.90;;
71038;SDS011;58692;43.212;27.908;2023-03-31T03:32:33;37.80;;;17.50;;
71038;SDS011;58692;43.212;27.908;2023-03-31T03:34:59;30.10;;;15.27;;
71038;SDS011;58692;43.212;27.908;2023-03-31T03:37:26;31.20;;;15.82;;
71038;SDS011;58692;43.212;27.908;2023-03-31T03:39:52;38.45;;;18.50;;
71038;SDS011;58692;43.212;27.908;2023-03-31T03:42:17;30.93;;;16.00;;
71038;SDS011;58692;43.212;27.908;2023-03-31T03:44:43;34.72;;;14.88;;
71038;SDS011;58692;43.212;27.908;2023-03-31T03:47:08;41.57;;;16.37;;
71038;SDS011;58692;43.212;27.908;2023-03-31T03:49:34;36.20;;;17.40;;
71038;SDS011;58692;43.212;27.908;2023-03-31T03:51:59;34.10;;;16.20;;
71038;SDS011;58692;43.212;27.908;2023-03-31T03:54:25;29.97;;;14.10;;
71038;SDS011;58692;43.212;27.908;2023-03-31T03:56:50;41.03;;;15.57;;
71038;SDS011;58692;43.212;27.908;2023-03-31T03:59:17;37.15;;;16.65;;
71038;SDS011;58692;43.212;27.908;2023-03-31T04:01:42;36.07;;;16.73;;
71038;SDS011;58692;43.212;27.908;2023-03-31T04:04:08;40.13;;;16.00;;
71038;SDS011;58692;43.212;27.908;2023-03-31T04:06:34;38.90;;;16.03;;
71038;SDS011;58692;43.212;27.908;2023-03-31T04:09:00;30.08;;;15.65;;
71038;SDS011;58692;43.212;27.908;2023-03-31T04:11:26;35.88;;;16.83;;
71038;SDS011;58692;43.212;27.908;2023-03-31T04:13:52;30.37;;;15.83;;
71038;SDS011;58692;43.212;27.908;2023-03-31T04:16:18;38.05;;;18.15;;
71038;SDS011;58692;43.212;27.908;2023-03-31T04:18:44;36.63;;;16.13;;
71038;SDS011;58692;43.212;27.908;2023-03-31T04:21:10;33.57;;;16.83;;
71038;SDS011;58692;43.212;27.908;2023-03-31T04:23:39;36.22;;;16.88;;
71038;SDS011;58692;43.212;27.908;2023-03-31T04:26:13;38.30;;;16.85;;
71038;SDS011;58692;43.212;27.908;2023-03-31T04:28:41;39.30;;;16.65;;
71038;SDS011;58692;43.212;27.908;2023-03-31T04:31:10;37.30;;;17.75;;
71038;SDS011;58692;43.212;27.908;2023-03-31T04:33:53;35.13;;;17.93;;
71038;SDS011;58692;43.212;27.908;2023-03-31T04:36:19;34.80;;;15.85;;
71038;SDS011;58692;43.212;27.908;2023-03-31T04:38:45;40.92;;;17.58;;
71038;SDS011;58692;43.212;27.908;2023-03-31T04:41:15;37.85;;;17.17;;
71038;SDS011;58692;43.212;27.908;2023-03-31T04:43:41;38.92;;;18.02;;
71038;SDS011;58692;43.212;27.908;2023-03-31T04:46:07;36.27;;;18.50;;
71038;SDS011;58692;43.212;27.908;2023-03-31T04:48:33;39.80;;;21.45;;
71038;SDS011;58692;43.212;27.908;2023-03-31T04:50:58;40.40;;;21.65;;
71038;SDS011;58692;43.212;27.908;2023-03-31T04:53:24;35.67;;;19.17;;
71038;SDS011;58692;43.212;27.908;2023-03-31T04:55:50;34.58;;;16.98;;
71038;SDS011;58692;43.212;27.908;2023-03-31T04:58:16;35.05;;;16.90;;
71038;SDS011;58692;43.212;27.908;2023-03-31T05:00:41;27.87;;;14.00;;
71038;SDS011;58692;43.212;27.908;2023-03-31T05:03:09;27.70;;;14.30;;
71038;SDS011;58692;43.212;27.908;2023-03-31T05:05:35;27.30;;;14.23;;
71038;SDS011;58692;43.212;27.908;2023-03-31T05:08:02;29.63;;;14.98;;
71038;SDS011;58692;43.212;27.908;2023-03-31T05:10:28;28.75;;;14.10;;
71038;SDS011;58692;43.212;27.908;2023-03-31T05:12:54;26.08;;;14.30;;
71038;SDS011;58692;43.212;27.908;2023-03-31T05:15:20;26.67;;;14.17;;
71038;SDS011;58692;43.212;27.908;2023-03-31T05:17:48;27.80;;;15.10;;
71038;SDS011;58692;43.212;27.908;2023-03-31T05:20:14;34.20;;;15.55;;
71038;SDS011;58692;43.212;27.908;2023-03-31T05:22:40;33.08;;;15.30;;
71038;SDS011;58692;43.212;27.908;2023-03-31T05:25:07;36.50;;;16.35;;
71038;SDS011;58692;43.212;27.908;2023-03-31T05:27:34;37.97;;;17.27;;
71038;SDS011;58692;43.212;27.908;2023-03-31T05:30:00;36.28;;;16.13;;
71038;SDS011;58692;43.212;27.908;2023-03-31T05:32:29;41.42;;;19.20;;
71038;SDS011;58692;43.212;27.908;2023-03-31T05:34:56;36.22;;;18.48;;
71038;SDS011;58692;43.212;27.908;2023-03-31T05:37:22;38.37;;;17.83;;
71038;SDS011;58692;43.212;27.908;2023-03-31T05:39:49;41.85;;;20.38;;
71038;SDS011;58692;43.212;27.908;2023-03-31T05:42:15;47.67;;;21.27;;
71038;SDS011;58692;43.212;27.908;2023-03-31T05:44:41;42.63;;;21.00;;
71038;SDS011;58692;43.212;27.908;2023-03-31T05:47:06;51.00;;;21.73;;
71038;SDS011;58692;43.212;27.908;2023-03-31T05:49:38;46.73;;;21.27;;
71038;SDS011;58692;43.212;27.908;2023-03-31T05:52:05;41.08;;;21.50;;
71038;SDS011;58692;43.212;27.908;2023-03-31T05:54:35;46.95;;;22.63;;
71038;SDS011;58692;43.212;27.908;2023-03-31T05:57:04;44.27;;;23.23;;
71038;SDS011;58692;43.212;27.908;2023-03-31T05:59:30;44.03;;;23.00;;
71038;SDS011;58692;43.212;27.908;2023-03-31T06:01:55;54.20;;;26.27;;
71038;SDS011;58692;43.212;27.908;2023-03-31T06:04:21;54.13;;;27.90;;
71038;SDS011;58692;43.212;27.908;2023-03-31T06:06:46;50.33;;;25.70;;
71038;SDS011;58692;43.212;27.908;2023-03-31T06:09:14;56.63;;;26.43;;
71038;SDS011;58692;43.212;27.908;2023-03-31T06:11:40;56.55;;;27.90;;
71038;SDS011;58692;43.212;27.908;2023-03-31T06:14:05;52.75;;;27.40;;
71038;SDS011;58692;43.212;27.908;2023-03-31T06:16:31;58.57;;;27.00;;
71038;SDS011;58692;43.212;27.908;2023-03-31T06:18:57;55.37;;;26.90;;
71038;SDS011;58692;43.212;27.908;2023-03-31T06:21:22;54.27;;;26.93;;
71038;SDS011;58692;43.212;27.908;2023-03-31T06:23:48;48.20;;;27.83;;
71038;SDS011;58692;43.212;27.908;2023-03-31T06:26:16;62.65;;;27.25;;
71038;SDS011;58692;43.212;27.908;2023-03-31T06:28:46;51.83;;;28.48;;
71038;SDS011;58692;43.212;27.908;2023-03-31T06:31:14;60.85;;;28.05;;
71038;SDS011;58692;43.212;27.908;2023-03-31T06:33:41;58.22;;;28.60;;
71038;SDS011;58692;43.212;27.908;2023-03-31T06:36:08;73.20;;;29.30;;
71038;SDS011;58692;43.212;27.908;2023-03-31T06:38:36;62.08;;;29.23;;
71038;SDS011;58692;43.212;27.908;2023-03-31T06:41:03;65.10;;;29.98;;
71038;SDS011;58692;43.212;27.908;2023-03-31T06:43:30;63.78;;;31.52;;
71038;SDS011;58692;43.212;27.908;2023-03-31T06:45:56;68.23;;;31.20;;
71038;SDS011;58692;43.212;27.908;2023-03-31T06:48:22;64.83;;;29.03;;
71038;SDS011;58692;43.212;27.908;2023-03-31T06:50:49;72.75;;;32.40;;
71038;SDS011;58692;43.212;27.908;2023-03-31T06:53:15;65.93;;;31.63;;
71038;SDS011;58692;43.212;27.908;2023-03-31T06:55:40;56.00;;;26.15;;
71038;SDS011;58692;43.212;27.908;2023-03-31T06:58:09;55.27;;;25.77;;
71038;SDS011;58692;43.212;27.908;2023-03-31T07:00:35;51.60;;;25.60;;
71038;SDS011;58692;43.212;27.908;2023-03-31T07:03:02;51.53;;;25.23;;
71038;SDS011;58692;43.212;27.908;2023-03-31T07:05:28;50.63;;;22.47;;
71038;SDS011;58692;43.212;27.908;2023-03-31T07:07:55;40.38;;;19.27;;
71038;SDS011;58692;43.212;27.908;2023-03-31T07:10:23;40.80;;;17.42;;
71038;SDS011;58692;43.212;27.908;2023-03-31T07:12:50;37.65;;;16.75;;
71038;SDS011;58692;43.212;27.908;2023-03-31T07:15:16;42.03;;;19.47;;
71038;SDS011;58692;43.212;27.908;2023-03-31T07:17:41;38.80;;;17.97;;
71038;SDS011;58692;43.212;27.908;2023-03-31T07:20:08;37.40;;;19.05;;
71038;SDS011;58692;43.212;27.908;2023-03-31T07:22:37;40.83;;;20.13;;
71038;SDS011;58692;43.212;27.908;2023-03-31T07:25:02;42.43;;;20.93;;
71038;SDS011;58692;43.212;27.908;2023-03-31T07:27:28;46.35;;;22.23;;
71038;SDS011;58692;43.212;27.908;2023-03-31T07:29:54;47.00;;;20.95;;
71038;SDS011;58692;43.212;27.908;2023-03-31T07:32:20;35.47;;;18.93;;
71038;SDS011;58692;43.212;27.908;2023-03-31T07:34:50;49.97;;;26.20;;
71038;SDS011;58692;43.212;27.908;2023-03-31T07:37:18;54.85;;;29.63;;
71038;SDS011;58692;43.212;27.908;2023-03-31T07:39:44;35.70;;;20.40;;
71038;SDS011;58692;43.212;27.908;2023-03-31T07:42:10;32.42;;;15.55;;
71038;SDS011;58692;43.212;27.908;2023-03-31T07:44:35;26.60;;;13.83;;
71038;SDS011;58692;43.212;27.908;2023-03-31T07:47:02;28.13;;;12.15;;
71038;SDS011;58692;43.212;27.908;2023-03-31T07:49:31;25.67;;;12.73;;
71038;SDS011;58692;43.212;27.908;2023-03-31T07:51:58;24.90;;;10.77;;
71038;SDS011;58692;43.212;27.908;2023-03-31T07:54:24;20.10;;;10.70;;
71038;SDS011;58692;43.212;27.908;2023-03-31T07:56:50;26.98;;;10.93;;
71038;SDS011;58692;43.212;27.908;2023-03-31T07:59:41;24.83;;;10.15;;
71038;SDS011;58692;43.212;27.908;2023-03-31T08:02:10;22.40;;;11.57;;
71038;SDS011;58692;43.212;27.908;2023-03-31T08:04:43;24.83;;;13.03;;
71038;SDS011;58692;43.212;27.908;2023-03-31T08:07:54;21.73;;;11.15;;
71038;SDS011;58692;43.212;27.908;2023-03-31T08:10:46;21.48;;;10.98;;
71038;SDS011;58692;43.212;27.908;2023-03-31T08:13:13;23.25;;;9.68;;
71038;SDS011;58692;43.212;27.908;2023-03-31T08:15:44;19.58;;;9.10;;
71038;SDS011;58692;43.212;27.908;2023-03-31T08:18:10;21.50;;;9.47;;
71038;SDS011;58692;43.212;27.908;2023-03-31T08:20:36;20.90;;;9.13;;
71038;SDS011;58692;43.212;27.908;2023-03-31T08:23:05;20.33;;;10.15;;
71038;SDS011;58692;43.212;27.908;2023-03-31T08:25:33;21.02;;;11.32;;
71038;SDS011;58692;43.212;27.908;2023-03-31T08:27:59;25.08;;;11.23;;
71038;SDS011;58692;43.212;27.908;2023-03-31T08:30:32;26.07;;;13.37;;
71038;SDS011;58692;43.212;27.908;2023-03-31T08:33:01;31.35;;;14.20;;
71038;SDS011;58692;43.212;27.908;2023-03-31T08:35:38;24.73;;;14.40;;
71038;SDS011;58692;43.212;27.908;2023-03-31T08:38:04;30.83;;;15.27;;
71038;SDS011;58692;43.212;27.908;2023-03-31T08:40:37;35.88;;;16.85;;
71038;SDS011;58692;43.212;27.908;2023-03-31T08:43:09;32.27;;;16.90;;
71038;SDS011;58692;43.212;27.908;2023-03-31T08:45:42;31.20;;;17.13;;
71038;SDS011;58692;43.212;27.908;2023-03-31T08:48:19;32.67;;;15.65;;
71038;SDS011;58692;43.212;27.908;2023-03-31T08:51:10;26.73;;;15.27;;
71038;SDS011;58692;43.212;27.908;2023-03-31T08:56:35;26.07;;;14.37;;
71038;SDS011;58692;43.212;27.908;2023-03-31T08:59:19;24.95;;;13.90;;
71038;SDS011;58692;43.212;27.908;2023-03-31T09:01:58;27.77;;;15.27;;
71038;SDS011;58692;43.212;27.908;2023-03-31T09:18:30;30.67;;;16.33;;
71038;SDS011;58692;43.212;27.908;2023-03-31T09:21:02;31.50;;;17.67;;
71038;SDS011;58692;43.212;27.908;2023-03-31T09:27:14;32.97;;;19.27;;
71038;SDS011;58692;43.212;27.908;2023-03-31T09:29:42;40.67;;;19.10;;
71038;SDS011;58692;43.212;27.908;2023-03-31T09:32:18;28.38;;;17.02;;
71038;SDS011;58692;43.212;27.908;2023-03-31T09:35:00;28.33;;;16.65;;
71038;SDS011;58692;43.212;27.908;2023-03-31T09:37:45;25.90;;;15.03;;
71038;SDS011;58692;43.212;27.908;2023-03-31T09:40:17;29.95;;;16.90;;
71038;SDS011;58692;43.212;27.908;2023-03-31T09:42:51;33.53;;;16.73;;
71038;SDS011;58692;43.212;27.908;2023-03-31T09:45:23;27.85;;;15.18;;
71038;SDS011;58692;43.212;27.908;2023-03-31T09:47:50;24.17;;;13.45;;
71038;SDS011;58692;43.212;27.908;2023-03-31T09:50:20;22.00;;;12.03;;
71038;SDS011;58692;43.212;27.908;2023-03-31T09:53:19;21.08;;;11.00;;
71038;SDS011;58692;43.212;27.908;2023-03-31T09:59:19;20.25;;;10.43;;
71038;SDS011;58692;43.212;27.908;2023-03-31T10:01:49;21.30;;;11.15;;
71038;SDS011;58692;43.212;27.908;2023-03-31T10:04:23;20.13;;;10.63;;
71038;SDS011;58692;43.212;27.908;2023-03-31T10:07:03;21.17;;;11.75;;
71038;SDS011;58692;43.212;27.908;2023-03-31T10:09:32;23.65;;;11.82;;
71038;SDS011;58692;43.212;27.908;2023-03-31T10:12:03;22.70;;;12.48;;
71038;SDS011;58692;43.212;27.908;2023-03-31T10:14:34;25.80;;;13.07;;
71038;SDS011;58692;43.212;27.908;2023-03-31T10:17:14;19.80;;;11.60;;
71038;SDS011;58692;43.212;27.908;2023-03-31T10:19:50;22.20;;;12.18;;
71038;SDS011;58692;43.212;27.908;2023-03-31T10:22:32;18.17;;;10.43;;
71038;SDS011;58692;43.212;27.908;2023-03-31T10:25:12;18.33;;;10.23;;
71038;SDS011;58692;43.212;27.908;2023-03-31T10:27:41;18.25;;;10.02;;
71038;SDS011;58692;43.212;27.908;2023-03-31T10:30:25;18.23;;;9.30;;
71038;SDS011;58692;43.212;27.908;2023-03-31T10:33:00;18.45;;;9.15;;
71038;SDS011;58692;43.212;27.908;2023-03-31T10:35:32;20.42;;;9.88;;
71038;SDS011;58692;43.212;27.908;2023-03-31T10:40:50;22.00;;;11.43;;
71038;SDS011;58692;43.212;27.908;2023-03-31T10:43:26;25.53;;;11.73;;
71038;SDS011;58692;43.212;27.908;2023-03-31T10:45:53;23.85;;;12.30;;
71038;SDS011;58692;43.212;27.908;2023-03-31T10:48:29;23.42;;;13.32;;
71038;SDS011;58692;43.212;27.908;2023-03-31T10:51:00;23.40;;;13.88;;
71038;SDS011;58692;43.212;27.908;2023-03-31T10:53:40;22.52;;;12.90;;
71038;SDS011;58692;43.212;27.908;2023-03-31T10:56:23;25.37;;;13.03;;
71038;SDS011;58692;43.212;27.908;2023-03-31T10:59:31;24.75;;;12.02;;
71038;SDS011;58692;43.212;27.908;2023-03-31T11:07:36;22.52;;;11.30;;
71038;SDS011;58692;43.212;27.908;2023-03-31T11:10:26;16.47;;;10.07;;
71038;SDS011;58692;43.212;27.908;2023-03-31T11:13:22;19.15;;;10.02;;
71038;SDS011;58692;43.212;27.908;2023-03-31T11:29:59;16.30;;;8.52;;
71038;SDS011;58692;43.212;27.908;2023-03-31T11:37:45;17.13;;;9.60;;
71038;SDS011;58692;43.212;27.908;2023-03-31T11:42:59;17.40;;;10.45;;
71038;SDS011;58692;43.212;27.908;2023-03-31T11:48:26;16.17;;;9.32;;
71038;SDS011;58692;43.212;27.908;2023-03-31T11:51:01;21.83;;;11.45;;
71038;SDS011;58692;43.212;27.908;2023-03-31T11:53:30;21.30;;;13.50;;
71038;SDS011;58692;43.212;27.908;2023-03-31T11:55:58;25.67;;;15.00;;
71038;SDS011;58692;43.212;27.908;2023-03-31T12:04:00;17.40;;;10.18;;
71038;SDS011;58692;43.212;27.908;2023-03-31T12:06:28;18.58;;;10.05;;
71038;SDS011;58692;43.212;27.908;2023-03-31T12:09:03;17.75;;;9.73;;
71038;SDS011;58692;43.212;27.908;2023-03-31T12:22:12;16.23;;;9.55;;
71038;SDS011;58692;43.212;27.908;2023-03-31T12:24:51;16.03;;;8.90;;
71038;SDS011;58692;43.212;27.908;2023-03-31T12:27:19;16.02;;;9.85;;
71038;SDS011;58692;43.212;27.908;2023-03-31T12:29:55;16.17;;;9.50;;
71038;SDS011;58692;43.212;27.908;2023-03-31T12:32:24;14.65;;;9.05;;
71038;SDS011;58692;43.212;27.908;2023-03-31T12:34:56;15.85;;;9.10;;
71038;SDS011;58692;43.212;27.908;2023-03-31T12:37:38;17.50;;;9.40;;
71038;SDS011;58692;43.212;27.908;2023-03-31T12:40:56;15.63;;;8.02;;
71038;SDS011;58692;43.212;27.908;2023-03-31T12:43:18;16.52;;;8.50;;
71038;SDS011;58692;43.212;27.908;2023-03-31T12:46:02;15.15;;;8.98;;
71038;SDS011;58692;43.212;27.908;2023-03-31T12:51:19;15.73;;;8.73;;
71038;SDS011;58692;43.212;27.908;2023-03-31T12:54:07;15.95;;;8.73;;
71038;SDS011;58692;43.212;27.908;2023-03-31T13:04:39;18.40;;;10.13;;
71038;SDS011;58692;43.212;27.908;2023-03-31T13:07:11;25.17;;;10.52;;
71038;SDS011;58692;43.212;27.908;2023-03-31T13:09:57;17.10;;;9.43;;
71038;SDS011;58692;43.212;27.908;2023-03-31T13:12:55;19.13;;;9.13;;
71038;SDS011;58692;43.212;27.908;2023-03-31T13:15:22;17.13;;;9.57;;
71038;SDS011;58692;43.212;27.908;2023-03-31T13:17:54;16.65;;;9.10;;
71038;SDS011;58692;43.212;27.908;2023-03-31T13:20:25;17.15;;;8.45;;
71038;SDS011;58692;43.212;27.908;2023-03-31T13:25:40;17.27;;;9.50;;
71038;SDS011;58692;43.212;27.908;2023-03-31T13:33:04;16.47;;;9.17;;
71038;SDS011;58692;43.212;27.908;2023-03-31T13:35:34;15.63;;;8.35;;
71038;SDS011;58692;43.212;27.908;2023-03-31T13:46:48;16.27;;;8.73;;
71038;SDS011;58692;43.212;27.908;2023-03-31T13:55:27;22.25;;;10.93;;
71038;SDS011;58692;43.212;27.908;2023-03-31T14:06:58;40.83;;;20.48;;
71038;SDS011;58692;43.212;27.908;2023-03-31T14:09:32;37.40;;;18.65;;
71038;SDS011;58692;43.212;27.908;2023-03-31T14:11:59;33.27;;;18.20;;
71038;SDS011;58692;43.212;27.908;2023-03-31T14:14:26;33.40;;;17.00;;
71038;SDS011;58692;43.212;27.908;2023-03-31T14:17:02;27.55;;;15.25;;
71038;SDS011;58692;43.212;27.908;2023-03-31T14:33:07;23.13;;;12.80;;
71038;SDS011;58692;43.212;27.908;2023-03-31T14:38:26;28.33;;;14.43;;
71038;SDS011;58692;43.212;27.908;2023-03-31T14:40:53;25.33;;;13.27;;
71038;SDS011;58692;43.212;27.908;2023-03-31T14:43:22;23.08;;;13.73;;
71038;SDS011;58692;43.212;27.908;2023-03-31T14:46:00;22.92;;;14.00;;
71038;SDS011;58692;43.212;27.908;2023-03-31T14:48:27;22.90;;;13.10;;
71038;SDS011;58692;43.212;27.908;2023-03-31T14:50:56;26.63;;;12.67;;
71038;SDS011;58692;43.212;27.908;2023-03-31T14:53:23;24.63;;;12.48;;
71038;SDS011;58692;43.212;27.908;2023-03-31T14:55:50;24.92;;;11.93;;
71038;SDS011;58692;43.212;27.908;2023-03-31T14:58:24;28.33;;;13.10;;
71038;SDS011;58692;43.212;27.908;2023-03-31T15:00:55;20.25;;;10.98;;
71038;SDS011;58692;43.212;27.908;2023-03-31T15:03:22;18.27;;;9.97;;
71038;SDS011;58692;43.212;27.908;2023-03-31T15:05:50;26.33;;;11.25;;
71038;SDS011;58692;43.212;27.908;2023-03-31T15:08:22;24.42;;;11.18;;
71038;SDS011;58692;43.212;27.908;2023-03-31T15:10:49;28.13;;;12.05;;
71038;SDS011;58692;43.212;27.908;2023-03-31T15:13:28;25.63;;;11.48;;
71038;SDS011;58692;43.212;27.908;2023-03-31T15:15:57;24.03;;;10.60;;
71038;SDS011;58692;43.212;27.908;2023-03-31T15:18:24;26.95;;;12.85;;
71038;SDS011;58692;43.212;27.908;2023-03-31T15:20:51;22.40;;;11.75;;
71038;SDS011;58692;43.212;27.908;2023-03-31T15:23:18;23.08;;;12.20;;
71038;SDS011;58692;43.212;27.908;2023-03-31T15:25:52;30.57;;;14.27;;
71038;SDS011;58692;43.212;27.908;2023-03-31T15:28:22;39.35;;;14.48;;
71038;SDS011;58692;43.212;27.908;2023-03-31T15:30:51;27.33;;;14.40;;
71038;SDS011;58692;43.212;27.908;2023-03-31T15:33:18;37.17;;;15.97;;
71038;SDS011;58692;43.212;27.908;2023-03-31T15:35:47;26.93;;;13.80;;
71038;SDS011;58692;43.212;27.908;2023-03-31T15:38:13;25.92;;;11.85;;
71038;SDS011;58692;43.212;27.908;2023-03-31T15:40:42;37.13;;;16.60;;
71038;SDS011;58692;43.212;27.908;2023-03-31T15:45:37;45.67;;;18.10;;
71038;SDS011;58692;43.212;27.908;2023-03-31T15:48:13;30.73;;;14.10;;
71038;SDS011;58692;43.212;27.908;2023-03-31T15:50:43;26.90;;;11.90;;
71038;SDS011;58692;43.212;27.908;2023-03-31T15:53:43;15.65;;;9.75;;
71038;SDS011;58692;43.212;27.908;2023-03-31T15:55:59;21.15;;;9.10;;
71038;SDS011;58692;43.212;27.908;2023-03-31T16:01:11;17.48;;;9.27;;
71038;SDS011;58692;43.212;27.908;2023-03-31T16:03:40;19.25;;;10.43;;
71038;SDS011;58692;43.212;27.908;2023-03-31T16:08:56;21.50;;;9.55;;
71038;SDS011;58692;43.212;27.908;2023-03-31T16:11:39;19.03;;;9.90;;
71038;SDS011;58692;43.212;27.908;2023-03-31T16:14:12;20.42;;;9.80;;
71038;SDS011;58692;43.212;27.908;2023-03-31T16:16:46;25.63;;;10.70;;
71038;SDS011;58692;43.212;27.908;2023-03-31T16:19:16;21.25;;;9.88;;
71038;SDS011;58692;43.212;27.908;2023-03-31T16:21:45;19.48;;;9.18;;
71038;SDS011;58692;43.212;27.908;2023-03-31T16:24:16;21.97;;;10.17;;
71038;SDS011;58692;43.212;27.908;2023-03-31T16:26:44;23.25;;;11.32;;
71038;SDS011;58692;43.212;27.908;2023-03-31T16:29:18;18.35;;;9.95;;
71038;SDS011;58692;43.212;27.908;2023-03-31T16:31:45;20.58;;;10.95;;
71038;SDS011;58692;43.212;27.908;2023-03-31T16:34:11;22.73;;;10.07;;
71038;SDS011;58692;43.212;27.908;2023-03-31T16:36:37;19.38;;;9.63;;
71038;SDS011;58692;43.212;27.908;2023-03-31T16:39:03;21.73;;;10.25;;
71038;SDS011;58692;43.212;27.908;2023-03-31T16:41:31;22.75;;;11.02;;
71038;SDS011;58692;43.212;27.908;2023-03-31T16:43:57;20.70;;;10.37;;
71038;SDS011;58692;43.212;27.908;2023-03-31T16:46:23;23.17;;;10.30;;
71038;SDS011;58692;43.212;27.908;2023-03-31T16:48:49;24.92;;;11.70;;
71038;SDS011;58692;43.212;27.908;2023-03-31T16:51:16;27.40;;;12.68;;
71038;SDS011;58692;43.212;27.908;2023-03-31T16:53:42;25.87;;;11.80;;
71038;SDS011;58692;43.212;27.908;2023-03-31T16:56:08;30.98;;;14.02;;
71038;SDS011;58692;43.212;27.908;2023-03-31T16:58:36;37.70;;;15.73;;
71038;SDS011;58692;43.212;27.908;2023-03-31T17:01:03;34.30;;;16.10;;
71038;SDS011;58692;43.212;27.908;2023-03-31T17:03:31;36.72;;;15.45;;
71038;SDS011;58692;43.212;27.908;2023-03-31T17:05:57;40.08;;;16.80;;
71038;SDS011;58692;43.212;27.908;2023-03-31T17:08:27;36.45;;;16.77;;
71038;SDS011;58692;43.212;27.908;2023-03-31T17:10:54;38.43;;;18.13;;
71038;SDS011;58692;43.212;27.908;2023-03-31T17:13:27;36.80;;;17.48;;
71038;SDS011;58692;43.212;27.908;2023-03-31T17:15:54;40.70;;;18.77;;
71038;SDS011;58692;43.212;27.908;2023-03-31T17:18:20;49.47;;;19.07;;
71038;SDS011;58692;43.212;27.908;2023-03-31T17:20:45;46.92;;;19.80;;
71038;SDS011;58692;43.212;27.908;2023-03-31T17:23:11;39.30;;;19.57;;
71038;SDS011;58692;43.212;27.908;2023-03-31T17:25:36;43.50;;;20.80;;
71038;SDS011;58692;43.212;27.908;2023-03-31T17:28:02;52.65;;;22.42;;
71038;SDS011;58692;43.212;27.908;2023-03-31T17:30:29;53.67;;;23.10;;
71038;SDS011;58692;43.212;27.908;2023-03-31T17:32:56;52.40;;;22.30;;
71038;SDS011;58692;43.212;27.908;2023-03-31T17:35:22;51.60;;;23.67;;
71038;SDS011;58692;43.212;27.908;2023-03-31T17:37:49;53.65;;;23.55;;